Time;durP1;ratioP1;P1;durP2;ratioP2;P2;SDS_P1;SDS_P2;PMS_P1;PMS_P2;Temp;Humidity;BMP_temperature;BMP_pressure;BME280_temperature;BME280_humidity;BME280_pressure;Samples;Min_cycle;Max_cycle;Signal;HPM_P1;HPM_P2
2023/04/25 00:04:59;;;;;;;7.60;5.45;;;;;;;10.18;100.00;94049.13;10423212;28;20277;-72
2023/04/25 00:09:59;;;;;;;13.10;6.33;;;;;;;10.14;100.00;94034.69;10422445;28;20094;-73
2023/04/25 00:14:59;;;;;;;8.85;5.68;;;;;;;9.98;100.00;94026.03;10422503;28;20287;-73
2023/04/25 00:20:00;;;;;;;8.47;5.00;;;;;;;9.88;100.00;94021.59;10422561;28;20083;-73
2023/04/25 00:25:01;;;;;;;9.25;5.90;;;;;;;9.53;100.00;94007.47;10421634;28;20355;-73
2023/04/25 00:30:02;;;;;;;13.32;4.95;;;;;;;9.48;100.00;93991.44;10422615;28;20431;-73
2023/04/25 00:35:03;;;;;;;8.57;5.00;;;;;;;9.18;100.00;93993.34;10422121;28;20380;-73
2023/04/25 00:40:06;;;;;;;9.15;5.65;;;;;;;9.13;100.00;93992.59;10421823;28;20037;-73
2023/04/25 00:45:12;;;;;;;13.20;7.20;;;;;;;9.15;100.00;93987.72;10426045;28;20146;-73
2023/04/25 00:50:12;;;;;;;10.75;7.05;;;;;;;9.22;100.00;93972.09;10421926;28;20072;-74
2023/04/25 00:55:13;;;;;;;12.23;6.85;;;;;;;9.20;100.00;93975.06;10422281;28;20064;-74
2023/04/25 01:00:14;;;;;;;13.35;7.22;;;;;;;9.17;100.00;93969.50;10421784;28;20062;-73
2023/04/25 01:05:14;;;;;;;10.93;6.00;;;;;;;9.16;100.00;93965.22;10421416;28;20414;-73
2023/04/25 01:10:15;;;;;;;12.40;6.22;;;;;;;9.22;100.00;93966.75;10421490;28;20153;-73
2023/04/25 01:15:16;;;;;;;12.88;6.55;;;;;;;9.32;100.00;93955.13;10421368;28;20029;-73
2023/04/25 01:20:16;;;;;;;10.30;6.78;;;;;;;9.40;100.00;93947.28;10421106;28;20044;-73
2023/04/25 01:25:17;;;;;;;10.18;6.45;;;;;;;9.60;100.00;93932.03;10421808;28;20021;-73
2023/04/25 01:30:17;;;;;;;10.40;5.40;;;;;;;9.63;100.00;93936.00;10419922;28;20390;-73
2023/04/25 01:35:18;;;;;;;8.52;4.68;;;;;;;9.65;100.00;93936.53;10408541;28;20024;-73
2023/04/25 01:40:20;;;;;;;8.95;5.05;;;;;;;9.63;100.00;93944.88;10429162;28;20031;-73
2023/04/25 01:45:21;;;;;;;7.60;4.65;;;;;;;9.65;100.00;93947.25;10428596;28;20056;-73
2023/04/25 01:50:22;;;;;;;8.90;4.75;;;;;;;9.57;100.00;93954.84;10428416;28;20036;-73
2023/04/25 01:55:22;;;;;;;9.20;4.70;;;;;;;9.55;100.00;93953.53;10427927;28;20036;-73
2023/04/25 02:00:23;;;;;;;7.70;5.30;;;;;;;9.49;100.00;93944.75;10428751;28;20479;-73
2023/04/25 02:05:23;;;;;;;9.77;6.37;;;;;;;9.42;100.00;93955.03;10428325;28;20266;-74
2023/04/25 02:10:24;;;;;;;11.43;6.37;;;;;;;9.10;100.00;93951.06;10428130;28;20272;-73
2023/04/25 02:15:24;;;;;;;13.07;7.50;;;;;;;9.18;100.00;93925.50;10428285;28;20349;-73
2023/04/25 02:20:25;;;;;;;16.05;9.07;;;;;;;9.06;100.00;93932.03;10427458;28;20032;-74
2023/04/25 02:25:25;;;;;;;15.63;8.57;;;;;;;9.02;100.00;93936.38;10426573;28;20024;-73
2023/04/25 02:30:26;;;;;;;14.18;7.78;;;;;;;9.11;100.00;93914.31;10409363;28;20028;-71
2023/04/25 02:35:26;;;;;;;13.15;7.68;;;;;;;9.04;100.00;93906.59;10427042;28;20028;-72
2023/04/25 02:40:27;;;;;;;13.30;8.15;;;;;;;9.04;100.00;93920.81;10423532;28;20033;-73
2023/04/25 02:45:27;;;;;;;13.63;7.68;;;;;;;9.02;100.00;93914.94;10425541;28;20032;-72
2023/04/25 02:50:28;;;;;;;14.07;8.47;;;;;;;8.89;100.00;93912.94;10408236;28;20032;-72
2023/04/25 02:55:28;;;;;;;14.90;8.63;;;;;;;8.88;100.00;93911.31;10425117;28;20815;-72
2023/04/25 03:00:29;;;;;;;13.82;8.32;;;;;;;8.78;100.00;93890.00;10425821;28;20025;-70
2023/04/25 03:05:29;;;;;;;16.25;8.70;;;;;;;8.72;100.00;93898.06;10412019;28;20024;-70
2023/04/25 03:10:30;;;;;;;18.30;9.57;;;;;;;8.85;100.00;93893.16;10395925;28;20615;-70
2023/04/25 03:15:31;;;;;;;16.57;9.10;;;;;;;8.91;100.00;93894.69;10397612;28;20581;-71
2023/04/25 03:20:31;;;;;;;16.48;9.38;;;;;;;8.96;100.00;93885.78;10382392;28;20526;-70
2023/04/25 03:25:31;;;;;;;20.55;9.32;;;;;;;8.95;100.00;93895.72;10383769;28;20513;-70
2023/04/25 03:30:32;;;;;;;20.57;10.10;;;;;;;9.13;100.00;93898.75;10421867;28;20053;-72
2023/04/25 03:35:32;;;;;;;15.77;8.98;;;;;;;9.13;100.00;93901.44;10421501;28;20091;-72
2023/04/25 03:40:33;;;;;;;18.83;8.88;;;;;;;9.16;100.00;93882.91;10407923;28;20093;-72
2023/04/25 03:45:33;;;;;;;16.45;9.60;;;;;;;9.22;100.00;93900.53;10464971;28;20090;-72
2023/04/25 03:50:34;;;;;;;16.67;9.23;;;;;;;9.05;100.00;93902.84;10442026;28;20040;-72
2023/04/25 03:55:34;;;;;;;17.92;9.77;;;;;;;9.03;100.00;93897.00;10431039;28;20380;-72
2023/04/25 04:00:35;;;;;;;19.70;10.50;;;;;;;9.29;100.00;93891.34;10423050;28;20036;-71
2023/04/25 04:05:36;;;;;;;22.40;12.02;;;;;;;9.39;100.00;93881.31;10417467;28;20614;-71
2023/04/25 04:10:37;;;;;;;18.48;10.68;;;;;;;9.51;100.00;93894.28;10397108;28;20433;-71
2023/04/25 04:15:37;;;;;;;21.20;11.88;;;;;;;9.70;100.00;93907.75;10415835;28;20355;-71
2023/04/25 04:20:38;;;;;;;23.42;12.40;;;;;;;9.73;100.00;93907.16;10422497;28;20190;-71
2023/04/25 04:25:54;;;;;;;20.08;11.43;;;;;;;9.84;100.00;93891.75;10403431;28;20029;-71
2023/04/25 04:31:00;;;;;;;20.80;10.95;;;;;;;9.82;100.00;93895.78;10401676;28;20602;-71
2023/04/25 04:36:02;;;;;;;17.33;10.75;;;;;;;9.90;100.00;93895.94;10389873;28;20104;-70
2023/04/25 04:41:03;;;;;;;19.83;9.73;;;;;;;10.06;100.00;93887.66;10383057;28;20032;-70
2023/04/25 04:46:04;;;;;;;15.88;9.48;;;;;;;10.17;100.00;93885.63;10415916;28;20048;-70
2023/04/25 04:51:04;;;;;;;16.67;9.35;;;;;;;10.07;100.00;93884.72;10418815;28;20549;-72
2023/04/25 04:56:05;;;;;;;17.70;9.23;;;;;;;9.95;100.00;93878.97;10419456;28;20040;-71
2023/04/25 05:01:05;;;;;;;16.38;9.85;;;;;;;10.06;100.00;93899.22;10419172;28;20032;-68
2023/04/25 05:06:06;;;;;;;16.90;9.70;;;;;;;10.15;100.00;93887.84;10417365;28;20025;-69
2023/04/25 05:11:06;;;;;;;14.02;8.80;;;;;;;10.17;100.00;93901.75;10418311;28;20739;-69
2023/04/25 05:16:07;;;;;;;13.60;8.17;;;;;;;10.15;100.00;93909.31;10415911;28;20454;-69
2023/04/25 05:21:07;;;;;;;16.10;8.73;;;;;;;10.15;100.00;93906.63;10413884;28;20293;-69
2023/04/25 05:26:13;;;;;;;15.95;8.95;;;;;;;10.17;100.00;93904.44;10396586;28;20025;-69
2023/04/25 05:31:13;;;;;;;16.02;8.85;;;;;;;10.20;100.00;93910.03;10414929;28;20033;-69
2023/04/25 05:36:14;;;;;;;16.07;8.90;;;;;;;10.32;100.00;93900.75;10417333;28;20062;-68
2023/04/25 05:41:14;;;;;;;12.27;8.75;;;;;;;10.33;100.00;93908.50;10419806;28;20689;-68
2023/04/25 05:46:18;;;;;;;15.10;9.70;;;;;;;10.34;100.00;93907.44;10419996;28;20534;-68
2023/04/25 05:51:18;;;;;;;18.95;9.00;;;;;;;10.52;100.00;93910.38;10401710;28;20329;-67
2023/04/25 05:56:19;;;;;;;13.63;8.48;;;;;;;10.63;100.00;93914.50;10419343;28;20040;-69
2023/04/25 06:01:19;;;;;;;14.75;7.78;;;;;;;10.82;100.00;93908.31;10419482;28;20043;-68
2023/04/25 06:06:20;;;;;;;11.27;7.03;;;;;;;10.90;100.00;93911.13;10418762;28;20661;-68
2023/04/25 06:11:20;;;;;;;14.90;7.57;;;;;;;11.11;100.00;93900.00;10418432;28;20263;-68
2023/04/25 06:16:21;;;;;;;13.65;6.57;;;;;;;11.19;100.00;93887.75;10400670;28;20291;-69
2023/04/25 06:21:21;;;;;;;12.88;7.00;;;;;;;11.35;100.00;93894.44;10421026;28;20527;-69
2023/04/25 06:26:22;;;;;;;13.17;8.00;;;;;;;11.44;100.00;93894.53;10427138;28;20025;-68
2023/04/25 06:31:22;;;;;;;17.53;6.50;;;;;;;11.53;100.00;93900.81;10425357;28;20637;-69
2023/04/25 06:36:24;;;;;;;15.23;7.27;;;;;;;11.62;100.00;93906.28;10426223;28;20529;-68
2023/04/25 06:41:25;;;;;;;12.15;7.05;;;;;;;12.35;100.00;93894.81;10408131;28;20275;-69
2023/04/25 06:46:26;;;;;;;10.47;5.97;;;;;;;13.44;100.00;93897.25;10425085;28;20045;-69
2023/04/25 06:51:29;;;;;;;11.25;5.15;;;;;;;14.46;100.00;93897.31;10422850;28;20267;-68
2023/04/25 06:56:30;;;;;;;14.38;6.40;;;;;;;14.22;100.00;93906.66;10423035;28;20025;-69
2023/04/25 07:01:31;;;;;;;9.68;5.95;;;;;;;14.05;100.00;93906.63;10423511;28;20016;-68
2023/04/25 07:06:31;;;;;;;10.47;5.13;;;;;;;14.03;100.00;93906.94;10406217;28;20061;-70
2023/04/25 07:11:32;;;;;;;6.70;4.60;;;;;;;13.95;100.00;93915.81;10407953;28;20278;-69
2023/04/25 07:16:32;;;;;;;8.52;4.30;;;;;;;14.17;100.00;93904.91;10425451;28;20025;-69
2023/04/25 07:21:33;;;;;;;7.53;5.55;;;;;;;14.26;100.00;93907.63;10425834;28;20503;-69
2023/04/25 07:26:34;;;;;;;13.80;5.40;;;;;;;14.18;100.00;93909.19;10425336;28;20025;-69
2023/04/25 07:31:35;;;;;;;12.68;6.00;;;;;;;14.46;100.00;93906.19;10424493;28;20037;-69
2023/04/25 07:36:35;;;;;;;10.15;5.93;;;;;;;14.68;100.00;93899.09;10424338;28;20486;-68
2023/04/25 07:41:36;;;;;;;10.20;5.53;;;;;;;14.69;100.00;93896.06;10425042;28;20036;-69
2023/04/25 07:46:36;;;;;;;9.93;5.90;;;;;;;14.63;100.00;93896.53;10423559;28;20994;-68
2023/04/25 07:51:37;;;;;;;12.27;6.77;;;;;;;14.74;100.00;93897.78;10424118;28;20342;-68
2023/04/25 07:56:37;;;;;;;8.07;5.47;;;;;;;15.41;100.00;93895.56;10423739;28;20275;-68
2023/04/25 08:01:38;;;;;;;7.45;4.32;;;;;;;15.23;100.00;93891.34;10423243;28;20048;-69
2023/04/25 08:06:38;;;;;;;16.13;6.10;;;;;;;15.38;100.00;93890.81;10422055;28;20415;-68
2023/04/25 08:11:38;;;;;;;8.32;5.22;;;;;;;16.56;100.00;93875.63;10423120;28;20033;-68
2023/04/25 08:16:39;;;;;;;10.27;4.53;;;;;;;19.91;100.00;93876.75;10422558;28;20017;-69
2023/04/25 08:21:40;;;;;;;9.80;4.10;;;;;;;22.01;93.16;93865.25;10420665;28;20699;-69
2023/04/25 08:26:41;;;;;;;5.33;4.00;;;;;;;-146.07;100.00;70291.31;10422534;28;20410;-69
2023/04/25 08:31:41;;;;;;;8.70;3.63;;;;;;;-146.07;100.00;70291.31;10422554;28;20267;-69
2023/04/25 08:36:41;;;;;;;8.80;3.07;;;;;;;-146.07;100.00;70291.31;10422161;28;20025;-69
2023/04/25 08:41:44;;;;;;;6.60;2.85;;;;;;;-146.07;100.00;70291.31;10421499;28;20622;-69
2023/04/25 08:46:49;;;;;;;7.35;3.55;;;;;;;-146.07;100.00;70291.31;10420387;28;20052;-69
2023/04/25 08:51:51;;;;;;;9.07;3.70;;;;;;;-146.07;100.00;70291.31;10421531;28;20450;-69
2023/04/25 08:56:52;;;;;;;3.78;2.00;;;;;;;-146.07;100.00;70291.31;10423134;28;20036;-68
2023/04/25 09:01:52;;;;;;;3.05;1.92;;;;;;;-146.07;100.00;70291.31;10418689;28;20052;-69
2023/04/25 09:06:53;;;;;;;3.85;3.05;;;;;;;-146.07;100.00;70291.31;10418722;28;20029;-69
2023/04/25 09:11:54;;;;;;;9.97;4.27;;;;;;;-146.07;100.00;70291.31;10417566;28;20411;-68
2023/04/25 09:16:55;;;;;;;8.60;5.25;;;;;;;-146.07;100.00;70291.31;10419282;28;20711;-69
2023/04/25 09:22:00;;;;;;;8.27;5.70;;;;;;;-146.07;100.00;70291.31;10420442;28;20392;-69
2023/04/25 09:27:06;;;;;;;13.02;5.45;;;;;;;-146.07;100.00;70291.31;10420663;28;20021;-69
2023/04/25 09:32:12;;;;;;;10.82;5.95;;;;;;;-146.07;100.00;70291.31;10421049;28;20021;-69
2023/04/25 09:37:18;;;;;;;7.97;5.28;;;;;;;-146.07;100.00;70291.31;10420788;28;20029;-69
2023/04/25 09:42:22;;;;;;;5.60;4.40;;;;;;;-146.07;100.00;70291.31;10420758;28;20476;-68
2023/04/25 09:47:24;;;;;;;8.13;4.00;;;;;;;-146.07;100.00;70291.31;10420625;28;20080;-68
2023/04/25 09:52:25;;;;;;;8.40;5.15;;;;;;;-146.07;100.00;70291.31;10420378;28;20090;-68
2023/04/25 09:57:25;;;;;;;16.23;6.90;;;;;;;-146.07;100.00;70291.31;10426764;28;20082;-69
2023/04/25 10:02:27;;;;;;;7.87;5.07;;;;;;;-146.07;100.00;70291.31;10428814;28;20047;-68
2023/04/25 10:07:30;;;;;;;12.52;5.35;;;;;;;-146.07;100.00;70291.31;10427941;28;20147;-68
2023/04/25 10:12:33;;;;;;;9.35;4.78;;;;;;;-146.07;100.00;70291.31;10426420;28;20036;-68
2023/04/25 10:17:35;;;;;;;10.07;4.55;;;;;;;-146.07;100.00;70291.31;10427455;28;20031;-69
2023/04/25 10:22:44;;;;;;;8.48;4.18;;;;;;;-146.07;100.00;70291.31;10427988;28;20124;-69
2023/04/25 10:27:44;;;;;;;13.02;3.53;;;;;;;-146.07;100.00;70291.31;10427824;28;20028;-68
2023/04/25 10:32:47;;;;;;;4.20;1.08;;;;;;;-146.07;100.00;70291.31;10409548;28;20097;-68
2023/04/25 10:37:59;;;;;;;4.40;1.67;;;;;;;-146.07;100.00;70291.31;10426412;28;20399;-68
2023/04/25 10:43:28;;;;;;;6.95;3.05;;;;;;;-146.07;100.00;70291.31;10424802;28;20119;-69
2023/04/25 10:48:30;;;;;;;3.45;1.70;;;;;;;-146.07;100.00;70291.31;10426013;28;20080;-68
2023/04/25 10:53:34;;;;;;;6.72;2.58;;;;;;;-146.07;100.00;70291.31;10408245;28;20028;-69
2023/04/25 10:58:34;;;;;;;3.90;2.10;;;;;;;-146.07;100.00;70291.31;10426361;28;20025;-69
2023/04/25 11:03:41;;;;;;;6.47;2.85;;;;;;;-146.07;100.00;70291.31;10426368;28;20033;-69
2023/04/25 11:08:51;;;;;;;1.95;1.40;;;;;;;-146.07;100.00;70291.31;10425101;28;20013;-69
2023/04/25 11:13:51;;;;;;;2.40;1.70;;;;;;;-146.07;100.00;70291.31;10425901;28;20025;-69
2023/04/25 11:18:51;;;;;;;6.68;2.08;;;;;;;-146.07;100.00;70291.31;10426374;28;20025;-69
2023/04/25 11:23:53;;;;;;;9.13;2.40;;;;;;;-146.07;100.00;70291.31;10425562;28;20035;-69
2023/04/25 11:28:58;;;;;;;14.85;1.92;;;;;;;-146.07;100.00;70291.31;10425071;28;20654;-70
2023/04/25 11:33:58;;;;;;;3.15;1.60;;;;;;;-146.07;100.00;70291.31;10420840;28;20124;-68
2023/04/25 11:38:59;;;;;;;12.30;2.90;;;;;;;-146.07;100.00;70291.31;10423264;28;20487;-69
2023/04/25 11:44:00;;;;;;;15.02;2.85;;;;;;;-146.07;100.00;70291.31;10404820;28;20076;-69
2023/04/25 11:49:01;;;;;;;6.75;2.40;;;;;;;-146.07;100.00;70291.31;10423589;28;20090;-69
2023/04/25 11:54:02;;;;;;;4.55;2.25;;;;;;;-146.07;100.00;70291.31;10422691;28;20029;-70
2023/04/25 11:59:05;;;;;;;8.35;2.78;;;;;;;-146.07;100.00;70291.31;10404880;28;20032;-68
2023/04/25 12:04:13;;;;;;;2.80;0.88;;;;;;;-146.07;100.00;70291.31;10422479;28;20619;-69
2023/04/25 12:09:18;;;;;;;3.33;1.02;;;;;;;-146.07;100.00;70291.31;10403644;28;20037;-67
2023/04/25 12:14:32;;;;;;;3.25;0.82;;;;;;;-146.07;100.00;70291.31;10421313;28;20506;-68
2023/04/25 12:19:40;;;;;;;1.50;0.98;;;;;;;-146.07;100.00;70291.31;10420991;28;20043;-68
2023/04/25 12:24:40;;;;;;;4.05;1.05;;;;;;;-146.07;100.00;70291.31;10421780;28;20363;-69
2023/04/25 12:29:51;;;;;;;1.97;1.47;;;;;;;-146.07;100.00;70291.31;10402328;28;20066;-69
2023/04/25 12:34:51;;;;;;;2.55;1.27;;;;;;;-146.07;100.00;70291.31;10420679;28;20559;-68
2023/04/25 12:39:52;;;;;;;2.20;1.15;;;;;;;-146.07;100.00;70291.31;10420449;28;20033;-69
2023/04/25 12:44:52;;;;;;;2.40;1.17;;;;;;;-146.07;100.00;70291.31;10420545;28;20045;-69
2023/04/25 12:49:52;;;;;;;3.50;1.15;;;;;;;-146.07;100.00;70291.31;10402063;28;20283;-67
2023/04/25 12:54:53;;;;;;;12.18;1.08;;;;;;;-146.07;100.00;70291.31;10416866;28;20040;-69
2023/04/25 12:59:53;;;;;;;8.57;0.80;;;;;;;-146.07;100.00;70291.31;10403191;28;20029;-70
2023/04/25 13:04:56;;;;;;;3.40;1.30;;;;;;;-146.07;100.00;70291.31;10421222;28;20086;-71
2023/04/25 13:09:57;;;;;;;1.63;0.73;;;;;;;-146.07;100.00;70291.31;10403110;28;20800;-70
2023/04/25 13:14:58;;;;;;;4.80;0.73;;;;;;;-146.07;100.00;70291.31;10420730;28;20029;-71
2023/04/25 13:19:58;;;;;;;1.17;0.88;;;;;;;-146.07;100.00;70291.31;10420326;28;20024;-70
2023/04/25 13:24:59;;;;;;;2.85;1.33;;;;;;;-146.07;100.00;70291.31;10420722;28;20028;-71
2023/04/25 13:30:01;;;;;;;2.05;1.45;;;;;;;-146.07;100.00;70291.31;10424169;28;20024;-71
2023/04/25 13:35:05;;;;;;;3.17;1.98;;;;;;;-146.07;100.00;70291.31;10429455;28;20650;-72
2023/04/25 13:40:11;;;;;;;3.72;2.50;;;;;;;-146.07;100.00;70291.31;10428582;28;20091;-71
2023/04/25 13:45:11;;;;;;;3.65;1.83;;;;;;;-146.07;100.00;70291.31;10410767;28;20126;-71
2023/04/25 13:50:13;;;;;;;8.13;1.92;;;;;;;-146.07;100.00;70291.31;10428590;28;20029;-71
2023/04/25 13:55:13;;;;;;;4.47;2.50;;;;;;;-146.07;100.00;70291.31;10428394;28;20063;-71
2023/04/25 14:00:15;;;;;;;4.07;2.40;;;;;;;-146.07;100.00;70291.31;10427362;28;20040;-71
2023/04/25 14:05:15;;;;;;;8.80;2.25;;;;;;;-146.07;100.00;70291.31;10428044;28;20027;-71
2023/04/25 14:10:15;;;;;;;6.45;1.92;;;;;;;-146.07;100.00;70291.31;10427735;28;20035;-72
2023/04/25 14:15:16;;;;;;;3.63;1.50;;;;;;;-146.07;100.00;70291.31;10427544;28;20024;-71
2023/04/25 14:20:20;;;;;;;1.70;1.30;;;;;;;-146.07;100.00;70291.31;10427551;28;20328;-70
2023/04/25 14:25:21;;;;;;;6.80;2.13;;;;;;;-146.07;100.00;70291.31;10437982;28;20024;-71
2023/04/25 14:30:21;;;;;;;4.63;1.25;;;;;;;-146.07;100.00;70291.31;10454328;28;20063;-71
2023/04/25 14:35:21;;;;;;;2.97;1.57;;;;;;;-146.07;100.00;70291.31;10427482;28;20486;-71
2023/04/25 14:40:22;;;;;;;1.67;1.30;;;;;;;-146.07;100.00;70291.31;10408133;28;20271;-71
2023/04/25 14:45:23;;;;;;;6.75;1.85;;;;;;;-146.07;100.00;70291.31;10426265;28;20287;-71
2023/04/25 14:50:23;;;;;;;3.97;1.67;;;;;;;-146.07;100.00;70291.31;10426062;28;20531;-73
2023/04/25 14:55:24;;;;;;;7.57;4.60;;;;;;;-146.07;100.00;70291.31;10426298;28;20480;-71
2023/04/25 15:00:25;;;;;;;2.90;1.45;;;;;;;-146.07;100.00;70291.31;10426916;28;20406;-71
2023/04/25 15:05:25;;;;;;;4.13;1.80;;;;;;;-146.07;100.00;70291.31;10426527;28;20033;-71
2023/04/25 15:10:26;;;;;;;3.10;1.90;;;;;;;-146.07;100.00;70291.31;10425884;28;20032;-71
2023/04/25 15:15:26;;;;;;;3.40;1.77;;;;;;;-146.07;100.00;70291.31;10452470;28;20028;-72
2023/04/25 15:20:27;;;;;;;1.95;1.40;;;;;;;-146.07;100.00;70291.31;10425562;28;20020;-72
2023/04/25 15:25:28;;;;;;;2.33;1.60;;;;;;;-146.07;100.00;70291.31;10407392;28;20021;-71
2023/04/25 15:30:28;;;;;;;4.97;1.95;;;;;;;-146.07;100.00;70291.31;10425366;28;20025;-71
2023/04/25 15:35:29;;;;;;;1.83;1.07;;;;;;;-146.07;100.00;70291.31;10424668;28;20017;-71
2023/04/25 15:40:29;;;;;;;2.47;1.98;;;;;;;-146.07;100.00;70291.31;10430005;28;20303;-71
2023/04/25 15:45:31;;;;;;;2.03;1.40;;;;;;;-146.07;100.00;70291.31;10435429;28;20079;-70
2023/04/25 15:50:32;;;;;;;4.97;1.08;;;;;;;-146.07;100.00;70291.31;10424706;28;20051;-70
2023/04/25 15:55:33;;;;;;;2.63;1.60;;;;;;;-146.07;100.00;70291.31;10406292;28;20044;-70
2023/04/25 16:00:35;;;;;;;8.68;2.00;;;;;;;-146.07;100.00;70291.31;10445016;28;20060;-70
2023/04/25 16:05:36;;;;;;;2.78;1.90;;;;;;;-146.07;100.00;70291.31;10439528;28;20435;-72
2023/04/25 16:10:39;;;;;;;4.07;1.90;;;;;;;-146.07;100.00;70291.31;10446367;28;20692;-72
2023/04/25 16:15:39;;;;;;;2.17;1.52;;;;;;;-146.07;100.00;70291.31;10426821;28;20369;-72
2023/04/25 16:20:40;;;;;;;2.03;1.53;;;;;;;-146.07;100.00;70291.31;10423320;28;20029;-72
2023/04/25 16:25:42;;;;;;;4.35;2.50;;;;;;;-146.07;100.00;70291.31;10423057;28;20631;-72
2023/04/25 16:30:43;;;;;;;7.05;3.47;;;;;;;-146.07;100.00;70291.31;10421894;28;20056;-72
2023/04/25 16:35:43;;;;;;;4.35;1.50;;;;;;;-146.07;100.00;70291.31;10403131;28;20587;-72
2023/04/25 16:40:43;;;;;;;3.37;2.10;;;;;;;-146.07;100.00;70291.31;10417044;28;20029;-71
2023/04/25 16:45:44;;;;;;;6.03;1.48;;;;;;;-146.07;100.00;70291.31;10412876;28;20494;-71
2023/04/25 16:50:44;;;;;;;2.38;1.65;;;;;;;-146.07;100.00;70291.31;10417184;28;20121;-71
2023/04/25 16:55:45;;;;;;;6.10;2.80;;;;;;;-146.07;100.00;70291.31;10404413;28;20041;-71
2023/04/25 17:00:46;;;;;;;5.63;3.10;;;;;;;-146.07;100.00;70291.31;10401775;28;20115;-71
2023/04/25 17:05:49;;;;;;;7.72;3.95;;;;;;;-146.07;100.00;70291.31;10398354;28;20022;-71
2023/04/25 17:10:50;;;;;;;10.82;5.13;;;;;;;-146.07;100.00;70291.31;10393788;28;20068;-72
2023/04/25 17:15:50;;;;;;;10.57;6.35;;;;;;;-146.07;100.00;70291.31;10396224;28;20497;-73
2023/04/25 17:20:51;;;;;;;10.00;5.75;;;;;;;-146.07;100.00;70291.31;10368045;28;20032;-78
2023/04/25 17:25:52;;;;;;;11.75;6.82;;;;;;;-146.07;100.00;70291.31;10396603;28;20053;-72
2023/04/25 17:30:52;;;;;;;8.20;4.45;;;;;;;-146.07;100.00;70291.31;10372552;28;20063;-69
2023/04/25 17:35:53;;;;;;;7.03;4.30;;;;;;;-146.07;100.00;70291.31;10401355;28;20452;-79
2023/04/25 17:40:58;;;;;;;6.55;3.88;;;;;;;-146.07;100.00;70291.31;10393539;28;20495;-80
2023/04/25 17:45:59;;;;;;;6.60;4.13;;;;;;;-146.07;100.00;70291.31;10380356;28;20044;-78
2023/04/25 17:51:06;;;;;;;6.20;3.92;;;;;;;-146.07;100.00;70291.31;10398014;28;20028;-78
2023/04/25 17:56:07;;;;;;;8.57;4.25;;;;;;;-146.07;100.00;70291.31;10374233;28;20432;-77
2023/04/25 18:01:08;;;;;;;7.32;4.20;;;;;;;-146.07;100.00;70291.31;10391193;28;20411;-76
2023/04/25 18:06:08;;;;;;;5.88;3.95;;;;;;;-146.07;100.00;70291.31;10390852;28;20064;-77
2023/04/25 18:11:09;;;;;;;4.65;3.63;;;;;;;-146.07;100.00;70291.31;10398491;28;20093;-77
2023/04/25 18:16:10;;;;;;;5.80;3.83;;;;;;;-146.07;100.00;70291.31;10386976;28;20728;-78
2023/04/25 18:21:10;;;;;;;3.80;2.40;;;;;;;-146.07;100.00;70291.31;10405595;28;20033;-69
2023/04/25 18:26:11;;;;;;;2.85;2.10;;;;;;;-146.07;100.00;70291.31;10406042;28;20079;-70
2023/04/25 18:31:12;;;;;;;4.30;2.35;;;;;;;-146.07;100.00;70291.31;10404419;28;20132;-73
2023/04/25 18:36:13;;;;;;;5.60;2.67;;;;;;;-146.07;100.00;70291.31;10406322;28;20843;-70
2023/04/25 18:41:14;;;;;;;4.77;2.50;;;;;;;-146.07;100.00;70291.31;10403969;28;20052;-74
2023/04/25 18:46:16;;;;;;;3.65;2.67;;;;;;;-146.07;100.00;70291.31;10383946;28;20312;-82
2023/04/25 18:51:17;;;;;;;3.28;2.05;;;;;;;-146.07;100.00;70291.31;10389200;28;20044;-76
2023/04/25 18:56:19;;;;;;;3.00;2.47;;;;;;;-146.07;100.00;70291.31;10402909;28;20056;-74
2023/04/25 19:01:21;;;;;;;3.17;1.80;;;;;;;-146.07;100.00;70291.31;10411848;28;20497;-69
2023/04/25 19:06:24;;;;;;;3.58;2.42;;;;;;;-146.07;100.00;70291.31;10399454;28;20379;-74
2023/04/25 19:11:25;;;;;;;3.20;1.60;;;;;;;-146.07;100.00;70291.31;10403442;28;20399;-72
2023/04/25 19:16:26;;;;;;;3.22;1.83;;;;;;;-146.07;100.00;70291.31;10384091;28;20056;-73
2023/04/25 19:21:26;;;;;;;4.93;2.38;;;;;;;-146.07;100.00;70291.31;10406982;28;20035;-75
2023/04/25 19:26:27;;;;;;;5.05;1.88;;;;;;;-146.07;100.00;70291.31;10391272;28;20085;-68
2023/04/25 19:31:28;;;;;;;4.40;2.22;;;;;;;-146.07;100.00;70291.31;10399301;28;20369;-72
2023/04/25 19:36:28;;;;;;;3.90;2.15;;;;;;;-146.07;100.00;70291.31;10409988;28;20373;-72
2023/04/25 19:41:30;;;;;;;4.72;2.78;;;;;;;-146.07;100.00;70291.31;10396831;28;20063;-70
2023/04/25 19:46:32;;;;;;;5.97;3.00;;;;;;;-146.07;100.00;70291.31;10398381;28;20503;-82
2023/04/25 19:51:33;;;;;;;5.13;3.30;;;;;;;-146.07;100.00;70291.31;10400317;28;20060;-74
2023/04/25 19:56:34;;;;;;;4.63;2.85;;;;;;;-146.07;100.00;70291.31;10393822;28;20029;-72
2023/04/25 20:01:37;;;;;;;5.13;3.00;;;;;;;-146.07;100.00;70291.31;10421335;28;20146;-74
2023/04/25 20:06:37;;;;;;;4.40;3.00;;;;;;;-146.07;100.00;70291.31;10420198;28;20183;-73
2023/04/25 20:11:38;;;;;;;6.65;3.42;;;;;;;-146.07;100.00;70291.31;10422575;28;20031;-73
2023/04/25 20:16:38;;;;;;;6.10;3.55;;;;;;;-146.07;100.00;70291.31;10421952;28;20027;-72
2023/04/25 20:21:39;;;;;;;10.20;4.18;;;;;;;-146.07;100.00;70291.31;10422474;28;20036;-72
2023/04/25 20:26:42;;;;;;;5.22;3.40;;;;;;;-146.07;100.00;70291.31;10422641;28;20092;-72
2023/04/25 20:31:42;;;;;;;6.28;4.28;;;;;;;-146.07;100.00;70291.31;10422919;28;20777;-72
2023/04/25 20:36:43;;;;;;;6.40;4.40;;;;;;;-146.07;100.00;70291.31;10422409;28;20052;-72
2023/04/25 20:41:44;;;;;;;8.95;5.18;;;;;;;-146.07;100.00;70291.31;10403390;28;20545;-71
2023/04/25 20:46:45;;;;;;;6.68;4.55;;;;;;;-146.07;100.00;70291.31;10421823;28;20090;-71
2023/04/25 20:51:46;;;;;;;7.28;4.82;;;;;;;-146.07;100.00;70291.31;10421774;28;20040;-71
2023/04/25 20:56:46;;;;;;;15.07;4.93;;;;;;;-146.07;100.00;70291.31;10407737;28;20033;-71
2023/04/25 21:01:47;;;;;;;7.88;4.93;;;;;;;-146.07;100.00;70291.31;10421686;28;20021;-72
2023/04/25 21:06:49;;;;;;;13.25;4.32;;;;;;;-146.07;100.00;70291.31;10421553;28;20111;-71
2023/04/25 21:11:49;;;;;;;7.13;4.13;;;;;;;-146.07;100.00;70291.31;10421826;28;20082;-71
2023/04/25 21:16:50;;;;;;;9.88;4.85;;;;;;;-146.07;100.00;70291.31;10421055;28;20353;-71
2023/04/25 21:21:51;;;;;;;7.45;4.10;;;;;;;-146.07;100.00;70291.31;10421412;28;20078;-71
2023/04/25 21:26:51;;;;;;;6.45;4.30;;;;;;;-146.07;100.00;70291.31;10421202;28;20031;-73
2023/04/25 21:31:52;;;;;;;6.53;4.38;;;;;;;-146.07;100.00;70291.31;10421066;28;20107;-73
2023/04/25 21:36:52;;;;;;;7.20;4.13;;;;;;;-146.07;100.00;70291.31;10420803;28;20032;-72
2023/04/25 21:41:53;;;;;;;9.23;4.93;;;;;;;-146.07;100.00;70291.31;10419930;28;20552;-72
2023/04/25 21:46:54;;;;;;;7.00;4.30;;;;;;;-146.07;100.00;70291.31;10419870;28;20286;-72
2023/04/25 21:51:55;;;;;;;7.75;4.38;;;;;;;-146.07;100.00;70291.31;10408406;28;20033;-71
2023/04/25 21:56:56;;;;;;;8.85;4.03;;;;;;;-146.07;100.00;70291.31;10428586;28;20487;-72
2023/04/25 22:01:56;;;;;;;6.80;4.18;;;;;;;-146.07;100.00;70291.31;10429035;28;20029;-72
2023/04/25 22:06:57;;;;;;;5.70;3.65;;;;;;;-146.07;100.00;70291.31;10428602;28;20021;-74
2023/04/25 22:11:57;;;;;;;8.80;4.28;;;;;;;-146.07;100.00;70291.31;10427865;28;20415;-72
2023/04/25 22:16:59;;;;;;;6.25;4.00;;;;;;;-146.07;100.00;70291.31;10428355;28;20040;-72
2023/04/25 22:21:59;;;;;;;11.60;5.95;;;;;;;-146.07;100.00;70291.31;10428020;28;20159;-72
2023/04/25 22:27:01;;;;;;;7.75;4.30;;;;;;;-146.07;100.00;70291.31;10425828;28;20147;-72
2023/04/25 22:32:02;;;;;;;7.13;4.60;;;;;;;-146.07;100.00;70291.31;10426929;28;20550;-72
2023/04/25 22:37:03;;;;;;;11.63;5.28;;;;;;;-146.07;100.00;70291.31;10427060;28;20082;-72
2023/04/25 22:42:04;;;;;;;10.32;6.05;;;;;;;-146.07;100.00;70291.31;10426933;28;20063;-72
2023/04/25 22:47:05;;;;;;;7.43;4.60;;;;;;;-146.07;100.00;70291.31;10426945;28;20153;-72